NCAR-RAP Real-Time Weather Data

Output produced by METARs form (12 May 2021  12:06 UTC)
found at http://weather.rap.ucar.edu/surface/
 
KDLH 121155Z 23004KT 10SM CLR 07/M02 A3039 RMK AO2 SLP301 T00721022 10072 20028 53007
KDLH 121055Z 00000KT 10SM CLR 04/M05 A3038 RMK AO2 SLP298 T00441050
KDLH 120955Z 21003KT 10SM CLR 03/M04 A3037 RMK AO2 SLP297 T00331039
KDLH 120855Z 00000KT 10SM CLR 03/M04 A3037 RMK AO2 SLP296 T00331039 53000
KDLH 120755Z 00000KT 10SM CLR 04/M04 A3037 RMK AO2 SLP294 T00441044
KDLH 120655Z 00000KT 10SM CLR 04/M04 A3037 RMK AO2 SLP295 T00441044
KDLH 120555Z 00000KT 10SM CLR 06/M05 A3037 RMK AO2 SLP295 T00611050 10133 20056 401501033 53003
KDLH 120455Z 14003KT 10SM CLR 06/M05 A3036 RMK AO2 SLP294 T00561050
KDLH 120355Z 12004KT 10SM CLR 06/M04 A3036 RMK AO2 SLP294 T00611039
KDLH 120255Z 14004KT 10SM CLR 08/M04 A3036 RMK AO2 SLP292 T00831044 53016
KDLH 120155Z 13004KT 10SM FEW120 10/M04 A3034 RMK AO2 SLP284 T01001044
KDLH 120055Z 13005KT 10SM CLR 12/M04 A3032 RMK AO2 SLP279 T01221044
KDLH 112355Z 15008KT 10SM FEW080 13/M04 A3031 RMK AO2 SLP276 T01331044 10150 20111 53000
KDLH 112255Z 27009KT 10SM FEW080 14/M05 A3030 RMK AO2 SLP275 T01391050
KDLH 112155Z 00000KT 10SM FEW080 14/M07 A3030 RMK AO2 SLP275 T01391067
KDLH 112055Z 34008KT 10SM FEW080 14/M06 A3031 RMK AO2 SLP277 T01441056 56018